createdAt,value
2023-01-06T00:01:01.799Z,101601.13
2023-01-06T00:03:29.487Z,101598.31
2023-01-06T00:05:56.966Z,101596.66
2023-01-06T00:08:23.301Z,101594.97
2023-01-06T00:10:49.614Z,101591.75
2023-01-06T00:13:15.913Z,101599.16
2023-01-06T00:15:42.237Z,101587.00
2023-01-06T00:18:08.552Z,101583.53
2023-01-06T00:20:36.306Z,101575.53
2023-01-06T00:23:03.116Z,101574.25
2023-01-06T00:25:29.414Z,101577.50
2023-01-06T00:27:55.926Z,101566.72
2023-01-06T00:30:22.280Z,101576.53
2023-01-06T00:32:48.610Z,101574.84
2023-01-06T00:35:14.991Z,101565.91
2023-01-06T00:37:42.684Z,101563.38
2023-01-06T00:40:09.641Z,101561.97
2023-01-06T00:42:35.952Z,101571.75
2023-01-06T00:45:02.286Z,101564.34
2023-01-06T00:47:28.622Z,101569.09
2023-01-06T00:49:54.935Z,101564.22
2023-01-06T00:52:21.259Z,101571.47
2023-01-06T00:54:48.936Z,101560.72
2023-01-06T00:57:15.245Z,101566.31
2023-01-06T00:59:41.554Z,101566.16
2023-01-06T01:02:08.033Z,101566.75
2023-01-06T01:04:35.263Z,101567.59
2023-01-06T01:07:01.622Z,101567.44
2023-01-06T01:09:29.436Z,101559.16
2023-01-06T01:11:57.195Z,101564.66
2023-01-06T01:14:23.522Z,101553.59
2023-01-06T01:16:49.858Z,101558.19
2023-01-06T01:19:16.651Z,101572.63
2023-01-06T01:21:42.962Z,101568.69
2023-01-06T01:24:09.283Z,101560.72
2023-01-06T01:26:35.643Z,101553.59
2023-01-06T01:29:03.519Z,101562.13
2023-01-06T01:31:30.238Z,101556.50
2023-01-06T01:33:56.562Z,101556.81
2023-01-06T01:36:23.088Z,101555.66
2023-01-06T01:38:49.546Z,101567.72
2023-01-06T01:41:17.238Z,101564.34
2023-01-06T01:43:44.204Z,101566.16
2023-01-06T01:46:12.827Z,101560.72
2023-01-06T01:48:39.329Z,101558.06
2023-01-06T01:51:07.524Z,101557.34
2023-01-06T01:53:41.239Z,101553.19
2023-01-06T01:56:09.434Z,101543.22
2023-01-06T01:58:36.920Z,101542.25
2023-01-06T02:01:03.300Z,101538.75
2023-01-06T02:03:31.250Z,101535.41
2023-01-06T02:05:59.646Z,101521.97
2023-01-06T02:08:29.694Z,101524.78
2023-01-06T02:10:56.072Z,101526.75
2023-01-06T02:13:22.690Z,101514.44
2023-01-06T02:15:50.168Z,101505.75
2023-01-06T02:18:34.261Z,101499.88
2023-01-06T02:21:08.484Z,101496.56
2023-01-06T02:23:55.757Z,101505.50
2023-01-06T02:26:40.834Z,101503.94
2023-01-06T02:29:29.872Z,101494.16
2023-01-06T02:32:02.471Z,101499.22
2023-01-06T02:34:35.996Z,101487.88
2023-01-06T02:37:06.794Z,101494.56
2023-01-06T02:39:38.822Z,101496.13
2023-01-06T02:42:09.709Z,101497.94
2023-01-06T02:44:41.819Z,101484.50
2023-01-06T02:47:14.810Z,101471.78
2023-01-06T02:49:43.618Z,101466.75
2023-01-06T02:52:13.511Z,101471.34
2023-01-06T02:54:41.151Z,101463.66
2023-01-06T02:57:12.428Z,101457.50
2023-01-06T02:59:41.503Z,101450.38
2023-01-06T03:02:09.405Z,101455.41
2023-01-06T03:04:39.198Z,101457.81
2023-01-06T03:07:06.944Z,101449.72
2023-01-06T03:09:34.860Z,101449.97
2023-01-06T03:12:06.019Z,101453.63
2023-01-06T03:14:34.585Z,101445.50
2023-01-06T03:17:01.208Z,101449.00
2023-01-06T03:19:27.819Z,101448.72
2023-01-06T03:21:56.138Z,101450.25
2023-01-06T03:24:22.543Z,101438.22
2023-01-06T03:26:49.069Z,101446.19
2023-01-06T03:29:16.730Z,101450.53
2023-01-06T03:31:47.990Z,101441.97
2023-01-06T03:34:17.561Z,101450.09
2023-01-06T03:36:49.576Z,101451.25
2023-01-06T03:39:18.678Z,101443.41
2023-01-06T03:41:47.210Z,101438.19
2023-01-06T03:44:16.850Z,101419.31
2023-01-06T03:46:49.652Z,101423.94
2023-01-06T03:49:19.465Z,101442.69
2023-01-06T03:51:47.734Z,101448.41
2023-01-06T03:54:18.996Z,101441.41
2023-01-06T03:56:47.108Z,101435.53
2023-01-06T03:59:15.260Z,101428.13
2023-01-06T04:01:42.299Z,101427.16
2023-01-06T04:04:08.984Z,101423.22
2023-01-06T04:06:35.313Z,101428.66
2023-01-06T04:09:01.655Z,101433.56
2023-01-06T04:11:29.315Z,101427.13
2023-01-06T04:13:55.686Z,101427.69
2023-01-06T04:16:22.022Z,101427.97
2023-01-06T04:18:48.384Z,101429.13
2023-01-06T04:21:14.681Z,101417.50
2023-01-06T04:23:40.969Z,101419.56
2023-01-06T04:26:07.291Z,101410.63
2023-01-06T04:28:34.960Z,101422.81
2023-01-06T04:31:01.698Z,101407.72
2023-01-06T04:33:28.725Z,101413.69
2023-01-06T04:35:55.028Z,101410.06
2023-01-06T04:38:21.334Z,101408.13
2023-01-06T04:40:47.654Z,101403.78
2023-01-06T04:43:13.963Z,101398.47
2023-01-06T04:45:42.226Z,101396.81
2023-01-06T04:48:09.003Z,101400.75
2023-01-06T04:50:35.409Z,101398.09
2023-01-06T04:53:01.723Z,101396.69
2023-01-06T04:55:28.138Z,101381.59
2023-01-06T04:57:54.477Z,101371.53
2023-01-06T05:00:21.219Z,101353.56
2023-01-06T05:02:48.913Z,101368.13
2023-01-06T05:05:15.767Z,101361.69
2023-01-06T05:07:42.075Z,101350.78
2023-01-06T05:10:09.347Z,101358.38
2023-01-06T05:12:35.646Z,101356.13
2023-01-06T05:15:02.328Z,101356.25
2023-01-06T05:17:28.851Z,101355.84
2023-01-06T05:19:56.572Z,101355.75
2023-01-06T05:22:22.870Z,101357.00
2023-01-06T05:24:49.193Z,101352.06
2023-01-06T05:27:15.534Z,101355.56
2023-01-06T05:29:41.866Z,101343.13
2023-01-06T05:32:08.171Z,101357.41
2023-01-06T05:34:34.475Z,101346.25
2023-01-06T05:37:02.098Z,101352.06
2023-01-06T05:39:28.383Z,101361.72
2023-01-06T05:41:54.714Z,101354.47
2023-01-06T05:44:21.046Z,101355.03
2023-01-06T05:46:47.430Z,101335.84
2023-01-06T05:49:13.817Z,101354.34
2023-01-06T05:51:40.136Z,101357.97
2023-01-06T05:54:08.767Z,101350.53
2023-01-06T05:56:35.194Z,101350.16
2023-01-06T05:59:01.922Z,101358.09
2023-01-06T06:01:29.874Z,101355.44
2023-01-06T06:03:56.260Z,101358.22
2023-01-06T06:06:34.714Z,101362.28
2023-01-06T06:09:01.263Z,101352.53
2023-01-06T06:11:28.892Z,101356.13
2023-01-06T06:13:55.753Z,101350.56
2023-01-06T06:16:23.109Z,101346.63
2023-01-06T06:18:50.595Z,101346.25
2023-01-06T06:21:18.414Z,101342.59
2023-01-06T06:23:44.720Z,101341.44
2023-01-06T06:26:11.476Z,101341.16
2023-01-06T06:28:39.611Z,101348.59
2023-01-06T06:31:06.617Z,101359.50
2023-01-06T06:33:33.376Z,101356.38
2023-01-06T06:36:00.185Z,101357.22
2023-01-06T06:38:26.945Z,101339.97
2023-01-06T06:40:53.286Z,101361.00
2023-01-06T06:43:19.990Z,101350.66
2023-01-06T06:45:48.083Z,101354.97
2023-01-06T06:48:14.563Z,101351.38
2023-01-06T06:50:40.903Z,101359.22
2023-01-06T06:53:07.644Z,101351.25
2023-01-06T06:55:34.178Z,101344.38
2023-01-06T06:58:00.524Z,101344.38
2023-01-06T07:00:26.844Z,101344.94
2023-01-06T07:02:54.513Z,101340.47
2023-01-06T07:05:20.830Z,101353.19
2023-01-06T07:07:47.143Z,101356.25
2023-01-06T07:10:13.995Z,101352.75
2023-01-06T07:12:40.751Z,101350.78
2023-01-06T07:15:07.793Z,101352.22
2023-01-06T07:17:34.086Z,101361.88
2023-01-06T07:20:01.752Z,101361.88
2023-01-06T07:22:28.072Z,101365.91
2023-01-06T07:24:54.395Z,101372.06
2023-01-06T07:27:20.674Z,101372.47
2023-01-06T07:29:46.963Z,101374.31
2023-01-06T07:32:13.289Z,101373.44
2023-01-06T07:34:39.604Z,101371.78
2023-01-06T07:37:07.284Z,101365.34
2023-01-06T07:39:34.204Z,101374.44
2023-01-06T07:42:00.542Z,101377.50
2023-01-06T07:44:26.840Z,101372.19
2023-01-06T07:46:53.121Z,101373.59
2023-01-06T07:49:19.408Z,101373.72
2023-01-06T07:51:45.744Z,101374.72
2023-01-06T07:54:13.642Z,101379.31
2023-01-06T07:56:39.946Z,101387.28
2023-01-06T07:59:06.329Z,101393.44
2023-01-06T08:01:32.759Z,101406.72
2023-01-06T08:03:59.210Z,101415.00
2023-01-06T08:06:25.509Z,101410.09
2023-01-06T08:08:51.786Z,101431.94
2023-01-06T08:11:19.439Z,101427.31
2023-01-06T08:13:45.898Z,101425.78
2023-01-06T08:16:12.712Z,101433.47
2023-01-06T08:18:39.485Z,101427.19
2023-01-06T08:21:06.986Z,101419.94
2023-01-06T08:23:34.304Z,101428.16
2023-01-06T08:26:04.419Z,101433.91
2023-01-06T08:28:32.113Z,101437.81
2023-01-06T08:30:58.828Z,101444.69
2023-01-06T08:33:25.747Z,101444.81
2023-01-06T08:35:52.303Z,101445.78
2023-01-06T08:38:18.609Z,101446.91
2023-01-06T08:40:44.920Z,101445.22
2023-01-06T08:43:11.223Z,101445.09
2023-01-06T08:45:39.506Z,101445.53
2023-01-06T08:48:05.945Z,101452.47
2023-01-06T08:50:32.279Z,101454.31
2023-01-06T08:52:58.589Z,101460.88
2023-01-06T08:55:24.967Z,101473.91
2023-01-06T08:57:53.881Z,101475.13
2023-01-06T09:00:21.186Z,101476.13
2023-01-06T09:02:48.806Z,101480.72
2023-01-06T09:05:15.294Z,101478.91
2023-01-06T09:07:41.703Z,101476.38
2023-01-06T09:10:08.320Z,101488.56
2023-01-06T09:12:34.689Z,101483.81
2023-01-06T09:15:01.103Z,101483.69
2023-01-06T09:17:27.431Z,101481.03
2023-01-06T09:19:55.114Z,101492.50
2023-01-06T09:22:21.458Z,101492.63
2023-01-06T09:24:47.782Z,101492.63
2023-01-06T09:27:14.328Z,101494.03
2023-01-06T09:29:40.620Z,101491.38
2023-01-06T09:32:06.942Z,101502.81
2023-01-06T09:34:33.289Z,101508.00
2023-01-06T09:37:00.956Z,101507.00
2023-01-06T09:39:27.292Z,101516.25
2023-01-06T09:42:04.331Z,101518.34
2023-01-06T09:44:31.295Z,101529.53
2023-01-06T09:46:58.631Z,101533.75
2023-01-06T09:49:27.429Z,101531.91
2023-01-06T09:51:55.451Z,101538.75
2023-01-06T09:54:25.813Z,101536.66
2023-01-06T09:56:54.485Z,101540.88
2023-01-06T09:59:24.886Z,101538.22
2023-01-06T10:01:51.339Z,101533.44
2023-01-06T10:04:22.258Z,101541.00
2023-01-06T10:06:51.153Z,101537.94
2023-01-06T10:09:22.416Z,101543.78
2023-01-06T10:11:57.657Z,101555.69
2023-01-06T10:14:27.249Z,101542.09
2023-01-06T10:17:01.991Z,101546.88
2023-01-06T10:19:33.751Z,101545.19
2023-01-06T10:22:03.997Z,101543.78
2023-01-06T10:24:33.735Z,101550.63
2023-01-06T10:27:09.320Z,101550.34
2023-01-06T10:29:37.407Z,101537.47
2023-01-06T10:32:06.127Z,101540.50
2023-01-06T10:34:33.913Z,101532.81
2023-01-06T10:37:02.117Z,101535.34
2023-01-06T10:39:29.170Z,101536.75
2023-01-06T10:41:58.311Z,101536.88
2023-01-06T10:44:26.023Z,101531.66
2023-01-06T10:46:52.387Z,101529.53
2023-01-06T10:49:19.050Z,101530.94
2023-01-06T10:51:49.082Z,101532.88
2023-01-06T10:54:17.754Z,101533.16
2023-01-06T10:56:45.456Z,101530.50
2023-01-06T10:59:11.817Z,101530.66
2023-01-06T11:01:49.609Z,101516.19
2023-01-06T11:04:16.192Z,101521.00
2023-01-06T11:06:43.794Z,101523.75
2023-01-06T11:09:24.061Z,101526.59
2023-01-06T11:11:51.098Z,101535.84
2023-01-06T11:14:18.623Z,101536.97
2023-01-06T11:16:52.490Z,101540.34
2023-01-06T11:19:23.390Z,101538.09
2023-01-06T11:21:49.733Z,101535.03
2023-01-06T11:24:17.552Z,101541.75
2023-01-06T11:26:44.676Z,101542.28
2023-01-06T11:29:17.455Z,101538.91
2023-01-06T11:31:46.903Z,101525.72
2023-01-06T11:34:19.302Z,101527.09
2023-01-06T11:36:47.310Z,101521.38
2023-01-06T11:39:15.555Z,101524.31
2023-01-06T11:41:45.354Z,101521.66
2023-01-06T11:44:16.896Z,101524.88
2023-01-06T11:46:47.166Z,101517.34
2023-01-06T11:49:16.222Z,101528.78
2023-01-06T11:51:48.868Z,101530.06
2023-01-06T11:54:25.749Z,101524.59
2023-01-06T11:57:02.989Z,101517.88
2023-01-06T11:59:35.488Z,101511.13
2023-01-06T12:02:01.991Z,101514.50
2023-01-06T12:04:30.810Z,101510.81
2023-01-06T12:07:02.941Z,101515.16
2023-01-06T12:09:32.411Z,101514.47
2023-01-06T12:12:02.873Z,101512.47
2023-01-06T12:14:30.185Z,101503.09
2023-01-06T12:17:02.498Z,101498.97
2023-01-06T12:19:32.434Z,101504.56
2023-01-06T12:22:00.749Z,101505.47
2023-01-06T12:24:28.843Z,101506.09
2023-01-06T12:26:55.775Z,101501.28
2023-01-06T12:29:22.782Z,101501.59
2023-01-06T12:31:54.752Z,101498.63
2023-01-06T12:34:23.007Z,101499.72
2023-01-06T12:36:51.982Z,101492.88
2023-01-06T12:39:25.230Z,101487.28
2023-01-06T12:41:53.187Z,101490.19
2023-01-06T12:44:35.956Z,101491.63
2023-01-06T12:47:06.338Z,101497.13
2023-01-06T12:49:35.271Z,101498.16
2023-01-06T12:52:03.358Z,101506.44
2023-01-06T12:54:32.114Z,101500.97
2023-01-06T12:57:04.806Z,101504.63
2023-01-06T12:59:37.834Z,101497.63
2023-01-06T13:02:11.393Z,101496.31
2023-01-06T13:04:44.146Z,101493.50
2023-01-06T13:07:15.052Z,101498.94
2023-01-06T13:09:53.733Z,101494.69
2023-01-06T13:12:33.067Z,101502.25
2023-01-06T13:15:03.719Z,101507.09
2023-01-06T13:17:33.276Z,101504.97
2023-01-06T13:20:00.186Z,101515.09
2023-01-06T13:22:31.870Z,101510.06
2023-01-06T13:25:13.049Z,101505.03
2023-01-06T13:27:47.312Z,101504.78
2023-01-06T13:30:20.047Z,101504.28
2023-01-06T13:32:58.991Z,101517.19
2023-01-06T13:35:49.288Z,101513.53
2023-01-06T13:38:28.031Z,101509.19
2023-01-06T13:40:57.401Z,101505.47
2023-01-06T13:43:27.031Z,101494.53
2023-01-06T13:45:55.164Z,101495.25
2023-01-06T13:48:24.821Z,101489.22
2023-01-06T13:50:51.508Z,101486.31
2023-01-06T13:53:20.059Z,101485.88
2023-01-06T13:55:46.551Z,101491.22
2023-01-06T13:58:31.624Z,101488.31
2023-01-06T14:01:06.264Z,101487.63
2023-01-06T14:03:32.903Z,101486.38
2023-01-06T14:05:59.875Z,101487.06
2023-01-06T14:08:31.659Z,101482.91
2023-01-06T14:10:59.386Z,101483.97
2023-01-06T14:13:27.322Z,101489.28
2023-01-06T14:15:54.536Z,101488.31
2023-01-06T14:18:30.672Z,101489.28
2023-01-06T14:21:02.198Z,101481.84
2023-01-06T14:23:28.593Z,101486.50
2023-01-06T14:25:56.163Z,101495.16
2023-01-06T14:28:24.209Z,101496.84
2023-01-06T14:30:51.042Z,101489.53
2023-01-06T14:33:26.107Z,101492.88
2023-01-06T14:35:59.720Z,101491.22
2023-01-06T14:38:27.693Z,101493.88
2023-01-06T14:40:56.188Z,101493.03
2023-01-06T14:43:28.474Z,101489.69
2023-01-06T14:45:56.083Z,101481.03
2023-01-06T14:48:24.692Z,101475.69
2023-01-06T14:50:53.105Z,101488.31
2023-01-06T14:53:24.551Z,101474.03
2023-01-06T14:55:51.347Z,101478.78
2023-01-06T14:58:30.450Z,101473.75
2023-01-06T15:00:56.846Z,101478.94
2023-01-06T15:03:24.557Z,101480.38
2023-01-06T15:05:50.989Z,101477.31
2023-01-06T15:08:17.779Z,101476.72
2023-01-06T15:10:46.345Z,101484.31
2023-01-06T15:13:20.443Z,101477.63
2023-01-06T15:15:51.918Z,101481.09
2023-01-06T15:18:18.258Z,101487.94
2023-01-06T15:20:45.087Z,101491.72
2023-01-06T15:23:14.606Z,101489.25
2023-01-06T15:25:42.152Z,101482.53
2023-01-06T15:31:02.369Z,101475.28
2023-01-06T15:33:35.899Z,101463.09
2023-01-06T15:36:02.713Z,101453.03
2023-01-06T15:38:30.911Z,101458.09
2023-01-06T15:40:57.325Z,101470.00
2023-01-06T15:43:25.465Z,101476.00
2023-01-06T15:45:57.863Z,101473.50
2023-01-06T15:48:27.627Z,101473.81
2023-01-06T15:50:53.977Z,101479.13
2023-01-06T15:53:21.869Z,101481.09
2023-01-06T15:55:49.901Z,101480.25
2023-01-06T15:58:21.718Z,101490.31
2023-01-06T16:00:49.906Z,101480.97
2023-01-06T16:03:18.729Z,101481.38
2023-01-06T16:05:50.237Z,101487.53
2023-01-06T16:08:19.044Z,101486.13
2023-01-06T16:10:45.406Z,101480.56
2023-01-06T16:13:16.618Z,101476.66
2023-01-06T16:15:46.643Z,101478.06
2023-01-06T16:18:13.387Z,101481.44
2023-01-06T16:20:39.685Z,101474.72
2023-01-06T16:23:16.765Z,101473.88
2023-01-06T16:25:43.185Z,101467.72
2023-01-06T16:28:16.810Z,101467.19
2023-01-06T16:31:02.478Z,101478.78
2023-01-06T16:33:36.826Z,101477.25
2023-01-06T16:36:03.203Z,101472.19
2023-01-06T16:38:30.909Z,101481.56
2023-01-06T16:40:57.189Z,101477.25
2023-01-06T16:43:23.496Z,101483.25
2023-01-06T16:45:51.549Z,101488.56
2023-01-06T16:48:17.898Z,101486.44
2023-01-06T16:50:46.697Z,101480.72
2023-01-06T16:53:15.059Z,101485.34
2023-01-06T16:55:42.963Z,101482.81
2023-01-06T16:58:13.497Z,101481.56
2023-01-06T17:00:40.298Z,101481.97
2023-01-06T17:03:12.214Z,101476.25
2023-01-06T17:05:38.889Z,101477.38
2023-01-06T17:08:09.086Z,101475.53
2023-01-06T17:10:35.432Z,101476.94
2023-01-06T17:13:03.980Z,101471.91
2023-01-06T17:15:30.306Z,101476.94
2023-01-06T17:17:56.681Z,101470.50
2023-01-06T17:20:23.014Z,101468.00
2023-01-06T17:22:49.408Z,101468.84
2023-01-06T17:25:15.830Z,101465.34
2023-01-06T17:27:43.619Z,101469.69
2023-01-06T17:30:14.658Z,101476.38
2023-01-06T17:32:41.550Z,101471.06
2023-01-06T17:35:16.746Z,101467.41
2023-01-06T17:37:43.051Z,101475.41
2023-01-06T17:40:14.115Z,101468.50
2023-01-06T17:42:41.336Z,101468.41
2023-01-06T17:45:12.148Z,101470.78
2023-01-06T17:47:44.176Z,101474.56
2023-01-06T17:50:23.755Z,101483.50
2023-01-06T17:52:50.076Z,101475.41
2023-01-06T17:55:38.576Z,101475.13
2023-01-06T17:58:08.981Z,101471.34
2023-01-06T18:00:35.400Z,101469.50
2023-01-06T18:03:04.473Z,101470.63
2023-01-06T18:05:52.353Z,101469.50
2023-01-06T18:08:19.072Z,101469.50
2023-01-06T18:10:49.725Z,101473.00
2023-01-06T18:13:16.852Z,101472.16
2023-01-06T18:15:43.492Z,101472.72
2023-01-06T18:18:18.042Z,101463.34
2023-01-06T18:20:45.652Z,101473.41
2023-01-06T18:23:16.116Z,101471.31
2023-01-06T18:25:42.410Z,101466.81
2023-01-06T18:28:11.454Z,101474.66
2023-01-06T18:30:37.891Z,101481.47
2023-01-06T18:33:11.471Z,101477.13
2023-01-06T18:35:39.700Z,101481.78
2023-01-06T18:38:06.014Z,101478.69
2023-01-06T18:40:32.449Z,101481.94
2023-01-06T18:42:58.817Z,101477.06
2023-01-06T18:45:26.014Z,101468.69
2023-01-06T18:47:53.757Z,101463.66
2023-01-06T18:50:27.477Z,101463.91
2023-01-06T18:52:55.743Z,101459.16
2023-01-06T18:55:24.460Z,101461.25
2023-01-06T18:57:54.065Z,101465.19
2023-01-06T19:00:31.855Z,101466.56
2023-01-06T19:03:01.145Z,101466.84
2023-01-06T19:05:27.451Z,101466.56
2023-01-06T19:07:56.138Z,101464.75
2023-01-06T19:10:24.965Z,101461.25
2023-01-06T19:12:51.266Z,101461.25
2023-01-06T19:15:21.053Z,101458.19
2023-01-06T19:17:47.470Z,101451.34
2023-01-06T19:20:15.656Z,101441.53
2023-01-06T19:22:42.170Z,101449.66
2023-01-06T19:25:15.433Z,101450.06
2023-01-06T19:27:46.453Z,101450.78
2023-01-06T19:30:35.838Z,101444.63
2023-01-06T19:33:15.642Z,101427.13
2023-01-06T19:35:42.052Z,101445.44
2023-01-06T19:38:17.776Z,101455.09
2023-01-06T19:40:45.497Z,101447.41
2023-01-06T19:43:14.409Z,101446.44
2023-01-06T19:45:41.160Z,101456.09
2023-01-06T19:48:13.588Z,101458.75
2023-01-06T19:50:39.908Z,101460.41
2023-01-06T19:53:17.460Z,101462.94
2023-01-06T19:55:45.126Z,101457.75
2023-01-06T19:58:14.020Z,101460.16
2023-01-06T20:00:44.740Z,101461.13
2023-01-06T20:03:26.777Z,101463.78
2023-01-06T20:05:53.125Z,101467.41
2023-01-06T20:08:19.455Z,101467.28
2023-01-06T20:10:47.131Z,101464.63
2023-01-06T20:13:13.578Z,101466.72
2023-01-06T20:15:39.881Z,101460.69
2023-01-06T20:18:06.266Z,101462.69
2023-01-06T20:20:32.615Z,101458.34
2023-01-06T20:22:58.933Z,101451.75
2023-01-06T20:25:25.250Z,101458.22
2023-01-06T20:27:52.948Z,101462.50
2023-01-06T20:30:19.286Z,101452.72
2023-01-06T20:32:45.675Z,101455.38
2023-01-06T20:35:11.982Z,101453.56
2023-01-06T20:37:38.303Z,101445.59
2023-01-06T20:40:05.148Z,101436.78
2023-01-06T20:42:31.474Z,101435.53
2023-01-06T20:44:59.151Z,101446.84
2023-01-06T20:47:25.477Z,101440.25
2023-01-06T20:49:51.832Z,101440.56
2023-01-06T20:52:18.279Z,101441.41
2023-01-06T20:54:44.585Z,101450.88
2023-01-06T20:57:10.938Z,101451.19
2023-01-06T20:59:37.270Z,101447.84
2023-01-06T21:02:05.163Z,101444.91
2023-01-06T21:04:34.118Z,101445.88
2023-01-06T21:07:00.610Z,101440.56
2023-01-06T21:09:26.965Z,101442.09
2023-01-06T21:11:54.999Z,101441.09
2023-01-06T21:14:21.604Z,101437.59
2023-01-06T21:16:47.942Z,101437.88
2023-01-06T21:19:15.987Z,101434.75
2023-01-06T21:21:42.316Z,101432.56
2023-01-06T21:24:08.693Z,101420.53
2023-01-06T21:26:35.051Z,101430.47
2023-01-06T21:29:01.365Z,101432.69
2023-01-06T21:31:27.671Z,101438.44
2023-01-06T21:33:53.958Z,101440.69
2023-01-06T21:36:21.609Z,101440.13
2023-01-06T21:38:47.891Z,101437.44
2023-01-06T21:41:14.164Z,101443.22
2023-01-06T21:43:40.475Z,101433.28
2023-01-06T21:46:06.837Z,101436.78
2023-01-06T21:48:33.256Z,101434.53
2023-01-06T21:50:59.577Z,101427.81
2023-01-06T21:53:27.276Z,101429.41
2023-01-06T21:55:54.905Z,101433.28
2023-01-06T21:58:21.338Z,101426.88
2023-01-06T22:00:47.667Z,101436.81
2023-01-06T22:03:14.215Z,101421.84
2023-01-06T22:05:41.091Z,101430.13
2023-01-06T22:08:07.733Z,101433.88
2023-01-06T22:10:36.882Z,101424.94
2023-01-06T22:13:03.215Z,101423.81
2023-01-06T22:15:29.883Z,101427.59
2023-01-06T22:17:57.211Z,101425.34
2023-01-06T22:20:23.589Z,101421.16
2023-01-06T22:22:49.966Z,101427.47
2023-01-06T22:25:16.353Z,101423.81
2023-01-06T22:27:44.038Z,101432.63
2023-01-06T22:30:10.679Z,101426.09
2023-01-06T22:32:41.926Z,101419.63
2023-01-06T22:35:08.848Z,101426.34
2023-01-06T22:37:35.143Z,101426.34
2023-01-06T22:40:01.449Z,101432.25
2023-01-06T22:42:27.754Z,101426.34
2023-01-06T22:44:55.426Z,101429.72
2023-01-06T22:47:21.742Z,101431.94
2023-01-06T22:49:48.078Z,101428.59
2023-01-06T22:52:15.294Z,101429.03
2023-01-06T22:54:41.616Z,101429.56
2023-01-06T22:57:07.990Z,101424.97
2023-01-06T22:59:34.297Z,101434.06
2023-01-06T23:02:02.151Z,101427.91
2023-01-06T23:04:28.591Z,101435.88
2023-01-06T23:06:54.893Z,101430.56
2023-01-06T23:09:21.190Z,101428.59
2023-01-06T23:11:47.499Z,101423.44
2023-01-06T23:14:13.813Z,101428.03
2023-01-06T23:16:40.832Z,101429.13
2023-01-06T23:19:10.697Z,101431.66
2023-01-06T23:21:37.018Z,101432.63
2023-01-06T23:24:03.545Z,101427.03
2023-01-06T23:26:31.009Z,101429.00
2023-01-06T23:28:57.787Z,101420.75
2023-01-06T23:31:25.194Z,101423.56
2023-01-06T23:33:52.621Z,101418.38
2023-01-06T23:36:20.373Z,101415.16
2023-01-06T23:38:46.697Z,101408.19
2023-01-06T23:41:14.310Z,101411.69
2023-01-06T23:43:41.043Z,101400.59
2023-01-06T23:46:08.308Z,101405.63
2023-01-06T23:48:35.143Z,101407.31
2023-01-06T23:51:02.098Z,101414.03
2023-01-06T23:53:30.156Z,101403.69
2023-01-06T23:55:57.371Z,101406.63
2023-01-06T23:58:24.057Z,101400.47
